sensor_id;sensor_type;location;lat;lon;timestamp;P1;durP1;ratioP1;P2;durP2;ratioP2
46407;SDS011;32110;45.724;21.276;2024-02-04T00:01:57;20.40;;;10.75;;
46407;SDS011;32110;45.724;21.276;2024-02-04T00:04:22;18.20;;;9.77;;
46407;SDS011;32110;45.724;21.276;2024-02-04T00:06:48;20.33;;;10.70;;
46407;SDS011;32110;45.724;21.276;2024-02-04T00:09:14;19.45;;;10.82;;
46407;SDS011;32110;45.724;21.276;2024-02-04T00:11:39;28.05;;;11.23;;
46407;SDS011;32110;45.724;21.276;2024-02-04T00:14:04;20.30;;;12.20;;
46407;SDS011;32110;45.724;21.276;2024-02-04T00:16:29;21.27;;;11.50;;
46407;SDS011;32110;45.724;21.276;2024-02-04T00:18:55;21.00;;;11.07;;
46407;SDS011;32110;45.724;21.276;2024-02-04T00:21:20;21.13;;;10.63;;
46407;SDS011;32110;45.724;21.276;2024-02-04T00:23:45;23.60;;;12.00;;
46407;SDS011;32110;45.724;21.276;2024-02-04T00:26:10;17.67;;;10.82;;
46407;SDS011;32110;45.724;21.276;2024-02-04T00:28:36;19.43;;;11.20;;
46407;SDS011;32110;45.724;21.276;2024-02-04T00:31:01;20.47;;;11.50;;
46407;SDS011;32110;45.724;21.276;2024-02-04T00:33:26;19.85;;;11.10;;
46407;SDS011;32110;45.724;21.276;2024-02-04T00:35:52;17.55;;;10.30;;
46407;SDS011;32110;45.724;21.276;2024-02-04T00:38:17;19.37;;;10.97;;
46407;SDS011;32110;45.724;21.276;2024-02-04T00:40:42;20.05;;;10.68;;
46407;SDS011;32110;45.724;21.276;2024-02-04T00:43:07;18.17;;;10.98;;
46407;SDS011;32110;45.724;21.276;2024-02-04T00:45:33;20.67;;;11.43;;
46407;SDS011;32110;45.724;21.276;2024-02-04T00:47:58;22.05;;;11.20;;
46407;SDS011;32110;45.724;21.276;2024-02-04T00:50:23;21.35;;;11.57;;
46407;SDS011;32110;45.724;21.276;2024-02-04T00:52:49;19.23;;;11.02;;
46407;SDS011;32110;45.724;21.276;2024-02-04T00:55:14;17.60;;;10.48;;
46407;SDS011;32110;45.724;21.276;2024-02-04T00:57:39;19.00;;;11.20;;
46407;SDS011;32110;45.724;21.276;2024-02-04T01:00:05;19.10;;;10.60;;
46407;SDS011;32110;45.724;21.276;2024-02-04T01:02:30;17.50;;;10.63;;
46407;SDS011;32110;45.724;21.276;2024-02-04T01:04:55;21.10;;;11.50;;
46407;SDS011;32110;45.724;21.276;2024-02-04T01:07:21;16.70;;;9.70;;
46407;SDS011;32110;45.724;21.276;2024-02-04T01:09:46;20.15;;;10.68;;
46407;SDS011;32110;45.724;21.276;2024-02-04T01:12:12;18.87;;;10.70;;
46407;SDS011;32110;45.724;21.276;2024-02-04T01:14:37;20.58;;;10.98;;
46407;SDS011;32110;45.724;21.276;2024-02-04T01:17:02;22.63;;;11.75;;
46407;SDS011;32110;45.724;21.276;2024-02-04T01:19:28;20.80;;;11.48;;
46407;SDS011;32110;45.724;21.276;2024-02-04T01:21:53;22.63;;;11.67;;
46407;SDS011;32110;45.724;21.276;2024-02-04T01:24:18;23.83;;;12.25;;
46407;SDS011;32110;45.724;21.276;2024-02-04T01:26:44;21.77;;;11.90;;
46407;SDS011;32110;45.724;21.276;2024-02-04T01:29:09;23.30;;;11.20;;
46407;SDS011;32110;45.724;21.276;2024-02-04T01:31:34;21.08;;;11.63;;
46407;SDS011;32110;45.724;21.276;2024-02-04T01:33:59;21.20;;;11.75;;
46407;SDS011;32110;45.724;21.276;2024-02-04T01:36:25;20.27;;;11.27;;
46407;SDS011;32110;45.724;21.276;2024-02-04T01:38:50;23.80;;;12.45;;
46407;SDS011;32110;45.724;21.276;2024-02-04T01:41:15;21.53;;;12.03;;
46407;SDS011;32110;45.724;21.276;2024-02-04T01:43:41;23.00;;;12.00;;
46407;SDS011;32110;45.724;21.276;2024-02-04T01:46:06;26.00;;;12.27;;
46407;SDS011;32110;45.724;21.276;2024-02-04T01:48:32;22.98;;;12.65;;
46407;SDS011;32110;45.724;21.276;2024-02-04T01:50:57;21.60;;;12.13;;
46407;SDS011;32110;45.724;21.276;2024-02-04T01:53:24;24.83;;;12.52;;
46407;SDS011;32110;45.724;21.276;2024-02-04T01:55:51;22.52;;;11.77;;
46407;SDS011;32110;45.724;21.276;2024-02-04T01:58:16;23.15;;;12.70;;
46407;SDS011;32110;45.724;21.276;2024-02-04T02:00:42;24.38;;;12.75;;
46407;SDS011;32110;45.724;21.276;2024-02-04T02:03:08;25.38;;;12.27;;
46407;SDS011;32110;45.724;21.276;2024-02-04T02:05:36;23.02;;;11.98;;
46407;SDS011;32110;45.724;21.276;2024-02-04T02:08:01;22.33;;;13.00;;
46407;SDS011;32110;45.724;21.276;2024-02-04T02:10:27;27.83;;;12.48;;
46407;SDS011;32110;45.724;21.276;2024-02-04T02:13:00;22.80;;;12.38;;
46407;SDS011;32110;45.724;21.276;2024-02-04T02:15:30;21.27;;;12.32;;
46407;SDS011;32110;45.724;21.276;2024-02-04T02:18:02;20.77;;;11.88;;
46407;SDS011;32110;45.724;21.276;2024-02-04T02:25:34;24.17;;;12.60;;
46407;SDS011;32110;45.724;21.276;2024-02-04T02:28:01;20.58;;;12.02;;
46407;SDS011;32110;45.724;21.276;2024-02-04T02:30:26;21.88;;;12.32;;
46407;SDS011;32110;45.724;21.276;2024-02-04T02:32:51;23.35;;;11.85;;
46407;SDS011;32110;45.724;21.276;2024-02-04T02:35:17;24.58;;;12.60;;
46407;SDS011;32110;45.724;21.276;2024-02-04T02:42:45;24.98;;;13.15;;
46407;SDS011;32110;45.724;21.276;2024-02-04T02:45:11;24.40;;;12.60;;
46407;SDS011;32110;45.724;21.276;2024-02-04T02:47:37;20.23;;;12.10;;
46407;SDS011;32110;45.724;21.276;2024-02-04T02:50:04;20.23;;;12.00;;
46407;SDS011;32110;45.724;21.276;2024-02-04T02:52:30;23.98;;;13.20;;
46407;SDS011;32110;45.724;21.276;2024-02-04T02:54:55;24.17;;;13.02;;
46407;SDS011;32110;45.724;21.276;2024-02-04T02:57:20;22.83;;;13.00;;
46407;SDS011;32110;45.724;21.276;2024-02-04T02:59:46;22.90;;;12.45;;
46407;SDS011;32110;45.724;21.276;2024-02-04T03:02:11;25.23;;;13.90;;
46407;SDS011;32110;45.724;21.276;2024-02-04T03:04:38;26.33;;;13.68;;
46407;SDS011;32110;45.724;21.276;2024-02-04T03:07:04;25.88;;;13.65;;
46407;SDS011;32110;45.724;21.276;2024-02-04T03:09:29;22.15;;;12.82;;
46407;SDS011;32110;45.724;21.276;2024-02-04T03:11:54;23.88;;;12.52;;
46407;SDS011;32110;45.724;21.276;2024-02-04T03:14:20;21.33;;;12.03;;
46407;SDS011;32110;45.724;21.276;2024-02-04T03:16:45;21.65;;;12.70;;
46407;SDS011;32110;45.724;21.276;2024-02-04T03:19:11;29.83;;;13.30;;
46407;SDS011;32110;45.724;21.276;2024-02-04T03:21:36;22.73;;;12.27;;
46407;SDS011;32110;45.724;21.276;2024-02-04T03:24:01;22.50;;;12.30;;
46407;SDS011;32110;45.724;21.276;2024-02-04T03:26:26;22.38;;;12.43;;
46407;SDS011;32110;45.724;21.276;2024-02-04T03:28:52;22.37;;;12.50;;
46407;SDS011;32110;45.724;21.276;2024-02-04T03:31:20;22.20;;;12.17;;
46407;SDS011;32110;45.724;21.276;2024-02-04T03:33:46;21.67;;;11.73;;
46407;SDS011;32110;45.724;21.276;2024-02-04T03:36:11;20.17;;;11.38;;
46407;SDS011;32110;45.724;21.276;2024-02-04T03:38:36;21.00;;;11.30;;
46407;SDS011;32110;45.724;21.276;2024-02-04T03:41:02;22.27;;;11.93;;
46407;SDS011;32110;45.724;21.276;2024-02-04T03:43:27;19.43;;;10.40;;
46407;SDS011;32110;45.724;21.276;2024-02-04T03:45:52;20.25;;;11.38;;
46407;SDS011;32110;45.724;21.276;2024-02-04T03:48:17;21.77;;;11.87;;
46407;SDS011;32110;45.724;21.276;2024-02-04T03:50:43;21.70;;;12.23;;
46407;SDS011;32110;45.724;21.276;2024-02-04T03:53:08;20.77;;;12.15;;
46407;SDS011;32110;45.724;21.276;2024-02-04T03:55:34;19.38;;;11.40;;
46407;SDS011;32110;45.724;21.276;2024-02-04T03:57:59;19.53;;;11.07;;
46407;SDS011;32110;45.724;21.276;2024-02-04T04:00:24;19.40;;;10.70;;
46407;SDS011;32110;45.724;21.276;2024-02-04T04:02:50;17.75;;;10.80;;
46407;SDS011;32110;45.724;21.276;2024-02-04T04:05:15;18.17;;;10.05;;
46407;SDS011;32110;45.724;21.276;2024-02-04T04:07:40;16.33;;;9.47;;
46407;SDS011;32110;45.724;21.276;2024-02-04T04:10:06;19.63;;;10.70;;
46407;SDS011;32110;45.724;21.276;2024-02-04T04:12:31;17.15;;;10.43;;
46407;SDS011;32110;45.724;21.276;2024-02-04T04:14:56;17.42;;;9.75;;
46407;SDS011;32110;45.724;21.276;2024-02-04T04:17:22;18.50;;;11.75;;
46407;SDS011;32110;45.724;21.276;2024-02-04T04:19:47;19.90;;;11.95;;
46407;SDS011;32110;45.724;21.276;2024-02-04T04:22:12;20.25;;;11.98;;
46407;SDS011;32110;45.724;21.276;2024-02-04T04:24:38;20.67;;;12.35;;
46407;SDS011;32110;45.724;21.276;2024-02-04T04:27:03;21.20;;;12.65;;
46407;SDS011;32110;45.724;21.276;2024-02-04T04:29:28;19.33;;;12.35;;
46407;SDS011;32110;45.724;21.276;2024-02-04T04:31:54;19.33;;;11.77;;
46407;SDS011;32110;45.724;21.276;2024-02-04T04:34:19;16.83;;;9.95;;
46407;SDS011;32110;45.724;21.276;2024-02-04T04:36:45;24.75;;;10.18;;
46407;SDS011;32110;45.724;21.276;2024-02-04T04:39:10;18.67;;;9.43;;
46407;SDS011;32110;45.724;21.276;2024-02-04T04:41:35;15.55;;;9.95;;
46407;SDS011;32110;45.724;21.276;2024-02-04T04:44:01;16.93;;;10.00;;
46407;SDS011;32110;45.724;21.276;2024-02-04T04:46:26;15.88;;;9.52;;
46407;SDS011;32110;45.724;21.276;2024-02-04T04:48:51;14.63;;;8.85;;
46407;SDS011;32110;45.724;21.276;2024-02-04T04:51:17;14.65;;;9.57;;
46407;SDS011;32110;45.724;21.276;2024-02-04T04:53:42;16.45;;;9.52;;
46407;SDS011;32110;45.724;21.276;2024-02-04T04:56:08;15.73;;;9.63;;
46407;SDS011;32110;45.724;21.276;2024-02-04T04:58:34;16.90;;;9.77;;
46407;SDS011;32110;45.724;21.276;2024-02-04T05:01:00;16.17;;;9.27;;
46407;SDS011;32110;45.724;21.276;2024-02-04T05:03:25;12.95;;;8.07;;
46407;SDS011;32110;45.724;21.276;2024-02-04T05:05:50;15.75;;;9.13;;
46407;SDS011;32110;45.724;21.276;2024-02-04T05:08:16;14.23;;;8.35;;
46407;SDS011;32110;45.724;21.276;2024-02-04T05:10:41;14.30;;;8.93;;
46407;SDS011;32110;45.724;21.276;2024-02-04T05:13:07;16.23;;;9.07;;
46407;SDS011;32110;45.724;21.276;2024-02-04T05:15:32;17.30;;;9.88;;
46407;SDS011;32110;45.724;21.276;2024-02-04T05:17:59;14.98;;;9.02;;
46407;SDS011;32110;45.724;21.276;2024-02-04T05:20:24;14.75;;;8.70;;
46407;SDS011;32110;45.724;21.276;2024-02-04T05:22:50;13.87;;;8.77;;
46407;SDS011;32110;45.724;21.276;2024-02-04T05:25:15;14.40;;;8.70;;
46407;SDS011;32110;45.724;21.276;2024-02-04T05:27:40;14.83;;;9.43;;
46407;SDS011;32110;45.724;21.276;2024-02-04T05:30:06;18.55;;;9.55;;
46407;SDS011;32110;45.724;21.276;2024-02-04T05:32:31;18.50;;;9.60;;
46407;SDS011;32110;45.724;21.276;2024-02-04T05:34:57;14.38;;;8.80;;
46407;SDS011;32110;45.724;21.276;2024-02-04T05:37:22;12.93;;;8.32;;
46407;SDS011;32110;45.724;21.276;2024-02-04T05:39:47;12.63;;;7.60;;
46407;SDS011;32110;45.724;21.276;2024-02-04T05:42:13;13.48;;;8.27;;
46407;SDS011;32110;45.724;21.276;2024-02-04T05:44:38;12.57;;;7.20;;
46407;SDS011;32110;45.724;21.276;2024-02-04T05:47:03;12.88;;;8.25;;
46407;SDS011;32110;45.724;21.276;2024-02-04T05:49:29;14.20;;;8.15;;
46407;SDS011;32110;45.724;21.276;2024-02-04T05:51:54;18.83;;;8.35;;
46407;SDS011;32110;45.724;21.276;2024-02-04T05:54:19;13.85;;;8.32;;
46407;SDS011;32110;45.724;21.276;2024-02-04T05:56:44;12.77;;;7.63;;
46407;SDS011;32110;45.724;21.276;2024-02-04T05:59:10;11.98;;;7.65;;
46407;SDS011;32110;45.724;21.276;2024-02-04T06:01:35;13.93;;;7.57;;
46407;SDS011;32110;45.724;21.276;2024-02-04T06:04:00;12.80;;;8.02;;
46407;SDS011;32110;45.724;21.276;2024-02-04T06:06:26;13.23;;;7.68;;
46407;SDS011;32110;45.724;21.276;2024-02-04T06:08:51;13.60;;;7.93;;
46407;SDS011;32110;45.724;21.276;2024-02-04T06:11:17;12.82;;;7.53;;
46407;SDS011;32110;45.724;21.276;2024-02-04T06:13:43;12.50;;;7.43;;
46407;SDS011;32110;45.724;21.276;2024-02-04T06:16:09;13.27;;;7.97;;
46407;SDS011;32110;45.724;21.276;2024-02-04T06:18:36;12.45;;;8.02;;
46407;SDS011;32110;45.724;21.276;2024-02-04T06:21:02;13.25;;;8.27;;
46407;SDS011;32110;45.724;21.276;2024-02-04T06:23:28;13.65;;;8.68;;
46407;SDS011;32110;45.724;21.276;2024-02-04T06:25:53;13.43;;;8.10;;
46407;SDS011;32110;45.724;21.276;2024-02-04T06:28:18;14.60;;;8.38;;
46407;SDS011;32110;45.724;21.276;2024-02-04T06:30:44;16.57;;;8.40;;
46407;SDS011;32110;45.724;21.276;2024-02-04T06:33:09;15.10;;;8.18;;
46407;SDS011;32110;45.724;21.276;2024-02-04T06:35:34;15.23;;;8.52;;
46407;SDS011;32110;45.724;21.276;2024-02-04T06:37:59;17.57;;;9.20;;
46407;SDS011;32110;45.724;21.276;2024-02-04T06:40:25;14.63;;;9.18;;
46407;SDS011;32110;45.724;21.276;2024-02-04T06:42:50;17.53;;;10.20;;
46407;SDS011;32110;45.724;21.276;2024-02-04T06:45:15;14.77;;;9.32;;
46407;SDS011;32110;45.724;21.276;2024-02-04T06:47:43;20.27;;;10.95;;
46407;SDS011;32110;45.724;21.276;2024-02-04T06:50:08;17.63;;;10.52;;
46407;SDS011;32110;45.724;21.276;2024-02-04T06:52:38;16.98;;;9.55;;
46407;SDS011;32110;45.724;21.276;2024-02-04T06:55:04;16.92;;;9.50;;
46407;SDS011;32110;45.724;21.276;2024-02-04T06:57:29;14.80;;;8.75;;
46407;SDS011;32110;45.724;21.276;2024-02-04T06:59:54;15.57;;;8.47;;
46407;SDS011;32110;45.724;21.276;2024-02-04T07:02:20;14.25;;;8.00;;
46407;SDS011;32110;45.724;21.276;2024-02-04T07:04:45;14.60;;;8.40;;
46407;SDS011;32110;45.724;21.276;2024-02-04T07:07:10;12.03;;;8.07;;
46407;SDS011;32110;45.724;21.276;2024-02-04T07:09:36;13.45;;;7.85;;
46407;SDS011;32110;45.724;21.276;2024-02-04T07:12:01;15.00;;;8.45;;
46407;SDS011;32110;45.724;21.276;2024-02-04T07:14:26;13.30;;;8.45;;
46407;SDS011;32110;45.724;21.276;2024-02-04T07:16:52;15.18;;;9.10;;
46407;SDS011;32110;45.724;21.276;2024-02-04T07:19:17;18.63;;;8.83;;
46407;SDS011;32110;45.724;21.276;2024-02-04T07:21:42;19.98;;;9.07;;
46407;SDS011;32110;45.724;21.276;2024-02-04T07:24:09;16.42;;;9.02;;
46407;SDS011;32110;45.724;21.276;2024-02-04T07:26:34;18.60;;;9.40;;
46407;SDS011;32110;45.724;21.276;2024-02-04T07:28:59;16.08;;;8.48;;
46407;SDS011;32110;45.724;21.276;2024-02-04T07:31:24;16.23;;;9.40;;
46407;SDS011;32110;45.724;21.276;2024-02-04T07:33:50;14.93;;;8.15;;
46407;SDS011;32110;45.724;21.276;2024-02-04T07:36:15;15.73;;;9.40;;
46407;SDS011;32110;45.724;21.276;2024-02-04T07:38:40;13.27;;;8.05;;
46407;SDS011;32110;45.724;21.276;2024-02-04T07:41:06;14.00;;;8.88;;
46407;SDS011;32110;45.724;21.276;2024-02-04T07:43:31;14.55;;;9.00;;
46407;SDS011;32110;45.724;21.276;2024-02-04T07:45:56;15.13;;;8.63;;
46407;SDS011;32110;45.724;21.276;2024-02-04T07:48:21;15.27;;;7.72;;
46407;SDS011;32110;45.724;21.276;2024-02-04T07:50:47;12.87;;;8.03;;
46407;SDS011;32110;45.724;21.276;2024-02-04T07:53:12;62.08;;;19.50;;
46407;SDS011;32110;45.724;21.276;2024-02-04T07:55:38;76.38;;;19.63;;
46407;SDS011;32110;45.724;21.276;2024-02-04T07:58:03;61.83;;;18.77;;
46407;SDS011;32110;45.724;21.276;2024-02-04T08:00:28;33.83;;;13.20;;
46407;SDS011;32110;45.724;21.276;2024-02-04T08:02:54;36.60;;;14.37;;
46407;SDS011;32110;45.724;21.276;2024-02-04T08:05:19;23.45;;;10.85;;
46407;SDS011;32110;45.724;21.276;2024-02-04T08:07:45;23.67;;;10.90;;
46407;SDS011;32110;45.724;21.276;2024-02-04T08:10:10;14.30;;;8.82;;
46407;SDS011;32110;45.724;21.276;2024-02-04T08:12:35;18.98;;;10.77;;
46407;SDS011;32110;45.724;21.276;2024-02-04T08:15:01;22.33;;;12.63;;
46407;SDS011;32110;45.724;21.276;2024-02-04T08:17:26;26.45;;;13.77;;
46407;SDS011;32110;45.724;21.276;2024-02-04T08:19:53;41.05;;;18.88;;
46407;SDS011;32110;45.724;21.276;2024-02-04T08:22:19;33.40;;;15.63;;
46407;SDS011;32110;45.724;21.276;2024-02-04T08:24:44;20.58;;;11.27;;
46407;SDS011;32110;45.724;21.276;2024-02-04T08:27:10;19.55;;;10.93;;
46407;SDS011;32110;45.724;21.276;2024-02-04T08:29:35;11.73;;;7.50;;
46407;SDS011;32110;45.724;21.276;2024-02-04T08:32:00;18.10;;;9.80;;
46407;SDS011;32110;45.724;21.276;2024-02-04T08:34:26;14.30;;;9.30;;
46407;SDS011;32110;45.724;21.276;2024-02-04T08:36:51;14.20;;;8.85;;
46407;SDS011;32110;45.724;21.276;2024-02-04T08:39:17;13.70;;;8.18;;
46407;SDS011;32110;45.724;21.276;2024-02-04T08:41:42;16.13;;;9.20;;
46407;SDS011;32110;45.724;21.276;2024-02-04T08:44:07;14.20;;;8.05;;
46407;SDS011;32110;45.724;21.276;2024-02-04T08:46:33;12.33;;;7.63;;
46407;SDS011;32110;45.724;21.276;2024-02-04T08:48:58;13.53;;;8.00;;
46407;SDS011;32110;45.724;21.276;2024-02-04T08:51:23;20.23;;;8.68;;
46407;SDS011;32110;45.724;21.276;2024-02-04T08:53:48;15.57;;;9.03;;
46407;SDS011;32110;45.724;21.276;2024-02-04T08:56:14;14.00;;;7.40;;
46407;SDS011;32110;45.724;21.276;2024-02-04T08:58:39;14.05;;;7.55;;
46407;SDS011;32110;45.724;21.276;2024-02-04T09:01:04;11.00;;;7.07;;
46407;SDS011;32110;45.724;21.276;2024-02-04T09:03:30;13.00;;;7.65;;
46407;SDS011;32110;45.724;21.276;2024-02-04T09:05:56;10.15;;;7.05;;
46407;SDS011;32110;45.724;21.276;2024-02-04T09:08:21;11.23;;;8.00;;
46407;SDS011;32110;45.724;21.276;2024-02-04T09:10:47;15.20;;;8.45;;
46407;SDS011;32110;45.724;21.276;2024-02-04T09:13:12;12.18;;;8.27;;
46407;SDS011;32110;45.724;21.276;2024-02-04T09:15:37;11.57;;;6.63;;
46407;SDS011;32110;45.724;21.276;2024-02-04T09:18:02;12.38;;;8.20;;
46407;SDS011;32110;45.724;21.276;2024-02-04T09:20:28;7.35;;;5.72;;
46407;SDS011;32110;45.724;21.276;2024-02-04T09:22:53;8.88;;;4.65;;
46407;SDS011;32110;45.724;21.276;2024-02-04T09:25:18;8.97;;;5.93;;
46407;SDS011;32110;45.724;21.276;2024-02-04T09:27:44;7.80;;;4.50;;
46407;SDS011;32110;45.724;21.276;2024-02-04T09:30:09;7.57;;;4.40;;
46407;SDS011;32110;45.724;21.276;2024-02-04T09:32:35;7.30;;;4.70;;
46407;SDS011;32110;45.724;21.276;2024-02-04T09:35:00;6.80;;;4.27;;
46407;SDS011;32110;45.724;21.276;2024-02-04T09:37:25;7.20;;;3.60;;
46407;SDS011;32110;45.724;21.276;2024-02-04T09:39:51;6.03;;;3.70;;
46407;SDS011;32110;45.724;21.276;2024-02-04T09:42:20;6.63;;;3.57;;
46407;SDS011;32110;45.724;21.276;2024-02-04T09:44:48;7.07;;;3.88;;
46407;SDS011;32110;45.724;21.276;2024-02-04T09:47:14;5.45;;;3.92;;
46407;SDS011;32110;45.724;21.276;2024-02-04T09:49:39;4.68;;;3.45;;
46407;SDS011;32110;45.724;21.276;2024-02-04T09:52:06;6.25;;;3.55;;
46407;SDS011;32110;45.724;21.276;2024-02-04T09:54:33;5.85;;;3.78;;
46407;SDS011;32110;45.724;21.276;2024-02-04T09:57:05;5.38;;;3.15;;
46407;SDS011;32110;45.724;21.276;2024-02-04T09:59:31;4.95;;;3.30;;
46407;SDS011;32110;45.724;21.276;2024-02-04T10:01:56;5.18;;;3.50;;
46407;SDS011;32110;45.724;21.276;2024-02-04T10:04:22;4.90;;;3.08;;
46407;SDS011;32110;45.724;21.276;2024-02-04T10:06:47;5.87;;;3.20;;
46407;SDS011;32110;45.724;21.276;2024-02-04T10:09:12;5.15;;;3.60;;
46407;SDS011;32110;45.724;21.276;2024-02-04T10:11:38;4.75;;;3.00;;
46407;SDS011;32110;45.724;21.276;2024-02-04T10:14:03;10.55;;;4.20;;
46407;SDS011;32110;45.724;21.276;2024-02-04T10:16:29;5.10;;;3.50;;
46407;SDS011;32110;45.724;21.276;2024-02-04T10:18:55;4.47;;;3.08;;
46407;SDS011;32110;45.724;21.276;2024-02-04T10:21:21;4.68;;;3.30;;
46407;SDS011;32110;45.724;21.276;2024-02-04T10:23:49;8.05;;;3.38;;
46407;SDS011;32110;45.724;21.276;2024-02-04T10:26:15;6.97;;;3.05;;
46407;SDS011;32110;45.724;21.276;2024-02-04T10:28:44;4.65;;;2.92;;
46407;SDS011;32110;45.724;21.276;2024-02-04T10:31:11;4.00;;;2.60;;
46407;SDS011;32110;45.724;21.276;2024-02-04T10:33:37;5.50;;;2.70;;
46407;SDS011;32110;45.724;21.276;2024-02-04T10:36:03;5.32;;;3.00;;
46407;SDS011;32110;45.724;21.276;2024-02-04T10:38:29;3.88;;;2.75;;
46407;SDS011;32110;45.724;21.276;2024-02-04T10:40:55;5.63;;;2.92;;
46407;SDS011;32110;45.724;21.276;2024-02-04T10:43:27;3.03;;;2.42;;
46407;SDS011;32110;45.724;21.276;2024-02-04T10:46:20;2.90;;;2.42;;
46407;SDS011;32110;45.724;21.276;2024-02-04T10:48:52;2.75;;;1.70;;
46407;SDS011;32110;45.724;21.276;2024-02-04T10:51:22;2.67;;;2.00;;
46407;SDS011;32110;45.724;21.276;2024-02-04T10:53:50;5.03;;;1.90;;
46407;SDS011;32110;45.724;21.276;2024-02-04T10:56:19;4.97;;;2.33;;
46407;SDS011;32110;45.724;21.276;2024-02-04T10:58:48;2.20;;;1.70;;
46407;SDS011;32110;45.724;21.276;2024-02-04T11:01:14;3.30;;;1.70;;
46407;SDS011;32110;45.724;21.276;2024-02-04T11:03:40;3.72;;;1.75;;
46407;SDS011;32110;45.724;21.276;2024-02-04T11:06:07;3.60;;;2.33;;
46407;SDS011;32110;45.724;21.276;2024-02-04T11:08:33;4.25;;;2.30;;
46407;SDS011;32110;45.724;21.276;2024-02-04T11:10:59;4.20;;;1.95;;
46407;SDS011;32110;45.724;21.276;2024-02-04T11:13:25;4.38;;;2.85;;
46407;SDS011;32110;45.724;21.276;2024-02-04T11:15:52;4.97;;;2.88;;
46407;SDS011;32110;45.724;21.276;2024-02-04T11:26:21;2.72;;;1.52;;
46407;SDS011;32110;45.724;21.276;2024-02-04T11:28:48;2.47;;;1.80;;
46407;SDS011;32110;45.724;21.276;2024-02-04T11:31:17;2.65;;;1.80;;
46407;SDS011;32110;45.724;21.276;2024-02-04T11:33:43;2.85;;;1.60;;
46407;SDS011;32110;45.724;21.276;2024-02-04T11:36:13;1.38;;;1.10;;
46407;SDS011;32110;45.724;21.276;2024-02-04T11:38:40;2.92;;;1.27;;
46407;SDS011;32110;45.724;21.276;2024-02-04T11:41:06;3.90;;;1.63;;
46407;SDS011;32110;45.724;21.276;2024-02-04T11:43:33;3.88;;;2.10;;
46407;SDS011;32110;45.724;21.276;2024-02-04T11:46:02;2.25;;;1.45;;
46407;SDS011;32110;45.724;21.276;2024-02-04T11:48:35;3.55;;;1.70;;
46407;SDS011;32110;45.724;21.276;2024-02-04T11:51:04;3.92;;;1.52;;
46407;SDS011;32110;45.724;21.276;2024-02-04T11:53:30;1.55;;;1.20;;
46407;SDS011;32110;45.724;21.276;2024-02-04T11:55:58;11.60;;;3.25;;
46407;SDS011;32110;45.724;21.276;2024-02-04T11:58:25;4.15;;;1.20;;
46407;SDS011;32110;45.724;21.276;2024-02-04T12:00:52;2.15;;;1.33;;
46407;SDS011;32110;45.724;21.276;2024-02-04T12:03:28;1.98;;;1.25;;
46407;SDS011;32110;45.724;21.276;2024-02-04T12:05:55;1.92;;;1.25;;
46407;SDS011;32110;45.724;21.276;2024-02-04T12:08:20;1.20;;;1.10;;
46407;SDS011;32110;45.724;21.276;2024-02-04T12:10:47;1.50;;;1.10;;
46407;SDS011;32110;45.724;21.276;2024-02-04T12:13:13;1.60;;;1.10;;
46407;SDS011;32110;45.724;21.276;2024-02-04T12:15:38;3.55;;;1.73;;
46407;SDS011;32110;45.724;21.276;2024-02-04T12:18:08;1.70;;;1.00;;
46407;SDS011;32110;45.724;21.276;2024-02-04T12:23:02;2.35;;;1.75;;
46407;SDS011;32110;45.724;21.276;2024-02-04T12:25:28;2.95;;;1.30;;
46407;SDS011;32110;45.724;21.276;2024-02-04T12:27:57;3.75;;;1.80;;
46407;SDS011;32110;45.724;21.276;2024-02-04T12:30:23;2.85;;;1.13;;
46407;SDS011;32110;45.724;21.276;2024-02-04T12:32:55;2.05;;;1.40;;
46407;SDS011;32110;45.724;21.276;2024-02-04T12:35:22;2.42;;;1.23;;
46407;SDS011;32110;45.724;21.276;2024-02-04T12:37:54;5.13;;;1.63;;
46407;SDS011;32110;45.724;21.276;2024-02-04T12:40:24;4.40;;;1.00;;
46407;SDS011;32110;45.724;21.276;2024-02-04T12:42:52;1.05;;;0.88;;
46407;SDS011;32110;45.724;21.276;2024-02-04T12:45:22;2.30;;;1.10;;
46407;SDS011;32110;45.724;21.276;2024-02-04T12:47:48;12.35;;;1.58;;
46407;SDS011;32110;45.724;21.276;2024-02-04T12:50:18;4.03;;;0.90;;
46407;SDS011;32110;45.724;21.276;2024-02-04T12:52:50;1.58;;;1.10;;
46407;SDS011;32110;45.724;21.276;2024-02-04T12:55:27;3.03;;;1.23;;
46407;SDS011;32110;45.724;21.276;2024-02-04T13:00:32;4.82;;;1.10;;
46407;SDS011;32110;45.724;21.276;2024-02-04T13:02:58;2.08;;;0.98;;
46407;SDS011;32110;45.724;21.276;2024-02-04T13:05:24;3.08;;;0.80;;
46407;SDS011;32110;45.724;21.276;2024-02-04T13:08:00;1.23;;;0.70;;
46407;SDS011;32110;45.724;21.276;2024-02-04T13:10:27;8.13;;;0.80;;
46407;SDS011;32110;45.724;21.276;2024-02-04T13:13:03;1.35;;;0.80;;
46407;SDS011;32110;45.724;21.276;2024-02-04T13:15:30;3.40;;;1.15;;
46407;SDS011;32110;45.724;21.276;2024-02-04T13:17:57;1.77;;;0.98;;
46407;SDS011;32110;45.724;21.276;2024-02-04T13:20:22;1.73;;;0.88;;
46407;SDS011;32110;45.724;21.276;2024-02-04T13:22:48;2.30;;;1.00;;
46407;SDS011;32110;45.724;21.276;2024-02-04T13:25:14;6.22;;;2.20;;
46407;SDS011;32110;45.724;21.276;2024-02-04T13:27:40;3.35;;;1.30;;
46407;SDS011;32110;45.724;21.276;2024-02-04T13:30:06;1.13;;;0.95;;
46407;SDS011;32110;45.724;21.276;2024-02-04T13:32:37;1.95;;;1.10;;
46407;SDS011;32110;45.724;21.276;2024-02-04T13:35:06;4.32;;;1.00;;
46407;SDS011;32110;45.724;21.276;2024-02-04T13:37:34;1.55;;;0.98;;
46407;SDS011;32110;45.724;21.276;2024-02-04T13:40:15;2.63;;;0.90;;
46407;SDS011;32110;45.724;21.276;2024-02-04T13:45:08;3.20;;;0.80;;
46407;SDS011;32110;45.724;21.276;2024-02-04T13:47:34;3.30;;;1.70;;
46407;SDS011;32110;45.724;21.276;2024-02-04T13:50:00;5.65;;;1.92;;
46407;SDS011;32110;45.724;21.276;2024-02-04T13:52:26;3.38;;;1.60;;
46407;SDS011;32110;45.724;21.276;2024-02-04T13:54:51;4.93;;;1.50;;
46407;SDS011;32110;45.724;21.276;2024-02-04T13:57:17;2.20;;;0.90;;
46407;SDS011;32110;45.724;21.276;2024-02-04T13:59:42;4.13;;;1.30;;
46407;SDS011;32110;45.724;21.276;2024-02-04T14:02:08;2.28;;;0.80;;
46407;SDS011;32110;45.724;21.276;2024-02-04T14:04:34;4.35;;;1.30;;
46407;SDS011;32110;45.724;21.276;2024-02-04T14:07:00;2.63;;;0.90;;
46407;SDS011;32110;45.724;21.276;2024-02-04T14:09:26;2.05;;;1.00;;
46407;SDS011;32110;45.724;21.276;2024-02-04T14:11:51;1.38;;;0.88;;
46407;SDS011;32110;45.724;21.276;2024-02-04T14:14:19;2.38;;;1.30;;
46407;SDS011;32110;45.724;21.276;2024-02-04T14:16:45;5.78;;;1.23;;
46407;SDS011;32110;45.724;21.276;2024-02-04T14:19:11;6.65;;;3.00;;
46407;SDS011;32110;45.724;21.276;2024-02-04T14:21:38;8.25;;;2.22;;
46407;SDS011;32110;45.724;21.276;2024-02-04T14:24:05;5.95;;;1.58;;
46407;SDS011;32110;45.724;21.276;2024-02-04T14:26:30;3.17;;;1.30;;
46407;SDS011;32110;45.724;21.276;2024-02-04T14:28:56;1.80;;;1.02;;
46407;SDS011;32110;45.724;21.276;2024-02-04T14:31:22;3.20;;;1.42;;
46407;SDS011;32110;45.724;21.276;2024-02-04T14:33:47;1.55;;;1.35;;
46407;SDS011;32110;45.724;21.276;2024-02-04T14:36:13;8.95;;;1.90;;
46407;SDS011;32110;45.724;21.276;2024-02-04T14:38:38;3.33;;;1.60;;
46407;SDS011;32110;45.724;21.276;2024-02-04T14:41:04;10.02;;;2.38;;